Time;durP1;ratioP1;P1;durP2;ratioP2;P2;SDS_P1;SDS_P2;PMS_P1;PMS_P2;Temp;Humidity;BMP_temperature;BMP_pressure;BME280_temperature;BME280_humidity;BME280_pressure;Samples;Min_cycle;Max_cycle;Signal;HPM_P1;HPM_P2
2023/03/19 00:01:27;;;;;;;12.83;9.47;;;;;;;11.78;100.00;98734.47;5005495;28;20210;-80
2023/03/19 00:03:56;;;;;;;10.13;8.67;;;;;;;11.73;100.00;98726.84;5006982;28;20214;-81
2023/03/19 00:06:24;;;;;;;12.53;9.03;;;;;;;11.75;100.00;98734.69;5002929;28;20198;-81
2023/03/19 00:08:54;;;;;;;10.67;8.37;;;;;;;11.64;100.00;98735.50;5007208;28;20194;-80
2023/03/19 00:11:22;;;;;;;15.73;9.37;;;;;;;11.73;100.00;98736.59;5007079;28;20202;-80
2023/03/19 00:13:50;;;;;;;12.10;9.17;;;;;;;11.83;100.00;98727.03;5008642;28;20203;-81
2023/03/19 00:16:19;;;;;;;14.73;9.00;;;;;;;11.85;100.00;98732.19;4999944;28;20237;-80
2023/03/19 00:18:50;;;;;;;10.83;8.33;;;;;;;11.69;100.00;98733.34;5041784;28;20224;-80
2023/03/19 00:21:18;;;;;;;11.90;8.20;;;;;;;11.82;100.00;98733.28;5067409;28;20188;-80
2023/03/19 00:23:47;;;;;;;11.20;7.13;;;;;;;11.67;100.00;98739.72;5031176;28;20265;-80
2023/03/19 00:26:17;;;;;;;11.13;7.43;;;;;;;11.69;100.00;98745.78;5023342;28;20232;-81
2023/03/19 00:28:47;;;;;;;10.53;7.17;;;;;;;11.75;100.00;98739.97;5024719;28;20197;-80
2023/03/19 00:31:17;;;;;;;10.50;7.50;;;;;;;11.43;100.00;98743.25;5026472;28;20250;-80
2023/03/19 00:33:45;;;;;;;9.03;7.10;;;;;;;11.46;100.00;98742.16;5021022;28;20205;-80
2023/03/19 00:36:15;;;;;;;8.93;6.83;;;;;;;11.55;100.00;98738.81;5026134;28;20239;-81
2023/03/19 00:38:43;;;;;;;9.63;6.90;;;;;;;11.51;100.00;98731.22;5022015;28;20272;-80
2023/03/19 00:41:14;;;;;;;8.80;7.30;;;;;;;11.72;100.00;98724.31;5033467;28;20259;-81
2023/03/19 00:43:48;;;;;;;10.03;6.90;;;;;;;11.57;100.00;98725.44;5071221;28;20200;-81
2023/03/19 00:46:16;;;;;;;11.77;6.77;;;;;;;11.63;100.00;98723.19;5067217;28;20200;-80
2023/03/19 00:48:46;;;;;;;11.20;7.10;;;;;;;11.56;100.00;98729.91;5064468;28;20674;-80
2023/03/19 00:51:16;;;;;;;10.10;7.23;;;;;;;11.65;100.00;98725.72;5070678;28;20200;-81
2023/03/19 00:53:44;;;;;;;13.60;7.63;;;;;;;11.42;100.00;98725.66;5068310;28;20248;-81
2023/03/19 00:56:20;;;;;;;9.10;7.33;;;;;;;11.50;100.00;98734.84;5065027;28;20204;-80
2023/03/19 00:58:49;;;;;;;12.77;8.00;;;;;;;11.47;100.00;98741.19;5072559;28;20220;-80
2023/03/19 01:01:18;;;;;;;11.07;7.30;;;;;;;11.46;100.00;98742.16;5066712;28;20314;-80
2023/03/19 01:03:46;;;;;;;10.47;8.03;;;;;;;11.42;100.00;98738.91;5065851;28;20204;-81
2023/03/19 01:06:15;;;;;;;9.53;7.07;;;;;;;11.52;100.00;98744.38;5070389;28;20242;-79
2023/03/19 01:08:44;;;;;;;12.40;7.50;;;;;;;11.51;100.00;98741.84;5063057;28;20193;-80
2023/03/19 01:11:16;;;;;;;9.47;6.63;;;;;;;11.54;100.00;98736.28;5007876;28;20262;-80
2023/03/19 01:13:46;;;;;;;9.40;6.77;;;;;;;11.44;100.00;98736.97;5009331;28;20237;-80
2023/03/19 01:16:16;;;;;;;12.63;6.77;;;;;;;11.62;100.00;98736.56;5002289;28;20206;-79
2023/03/19 01:18:45;;;;;;;9.30;5.87;;;;;;;11.64;100.00;98732.84;5011582;28;20268;-80
2023/03/19 01:21:14;;;;;;;7.67;5.87;;;;;;;11.57;100.00;98734.25;5005327;28;20201;-80
2023/03/19 01:23:43;;;;;;;10.30;6.30;;;;;;;11.41;100.00;98731.06;5008193;28;20269;-80
2023/03/19 01:26:11;;;;;;;8.80;5.93;;;;;;;11.59;100.00;98732.34;5003587;28;20650;-80
2023/03/19 01:28:43;;;;;;;10.50;6.40;;;;;;;11.60;100.00;98739.34;5021692;28;20677;-82
2023/03/19 01:31:13;;;;;;;11.90;6.00;;;;;;;11.54;100.00;98734.50;5068374;28;20273;-81
2023/03/19 01:33:43;;;;;;;9.13;6.20;;;;;;;11.41;100.00;98736.38;5070414;28;20780;-81
2023/03/19 01:36:12;;;;;;;9.47;6.57;;;;;;;11.44;100.00;98739.63;5068555;28;20189;-81
2023/03/19 01:38:42;;;;;;;8.63;6.20;;;;;;;11.30;100.00;98736.31;5066826;28;20212;-81
2023/03/19 01:41:11;;;;;;;9.93;7.03;;;;;;;11.20;100.00;98736.16;5070909;28;20192;-81
2023/03/19 01:43:40;;;;;;;12.43;7.67;;;;;;;11.17;100.00;98737.19;5074141;28;20201;-80
2023/03/19 01:46:21;;;;;;;9.63;7.07;;;;;;;11.20;100.00;98735.31;5071704;28;20208;-81
2023/03/19 01:48:54;;;;;;;10.50;7.53;;;;;;;11.09;100.00;98736.91;5072754;28;20196;-81
2023/03/19 01:51:30;;;;;;;9.30;7.33;;;;;;;11.10;100.00;98733.34;5077767;28;20195;-81
2023/03/19 01:54:01;;;;;;;7.83;7.03;;;;;;;11.08;100.00;98744.97;5077357;28;20242;-81
2023/03/19 01:56:32;;;;;;;8.90;6.83;;;;;;;11.09;100.00;98736.91;5072648;28;20193;-81
2023/03/19 01:59:06;;;;;;;10.20;7.13;;;;;;;11.07;100.00;98733.53;5075094;28;20231;-81
2023/03/19 02:01:42;;;;;;;10.87;7.23;;;;;;;11.07;100.00;98738.84;5068165;28;20204;-81
2023/03/19 02:04:14;;;;;;;10.57;6.90;;;;;;;11.08;100.00;98742.34;5070495;28;20636;-80
2023/03/19 02:06:44;;;;;;;10.57;7.40;;;;;;;11.13;100.00;98743.69;5074510;28;20233;-81
2023/03/19 02:09:14;;;;;;;11.90;8.27;;;;;;;11.12;100.00;98736.72;5072149;28;20193;-81
2023/03/19 02:11:43;;;;;;;14.73;8.70;;;;;;;11.08;100.00;98744.97;5073169;28;20200;-80
2023/03/19 02:14:12;;;;;;;9.83;7.33;;;;;;;11.08;100.00;98750.28;5071971;28;20191;-81
2023/03/19 02:16:42;;;;;;;11.30;7.27;;;;;;;11.07;100.00;98754.72;5070896;28;20188;-81
2023/03/19 02:19:17;;;;;;;12.10;7.60;;;;;;;11.00;100.00;98749.97;5070219;28;20212;-80
2023/03/19 02:21:45;;;;;;;12.33;8.23;;;;;;;10.91;100.00;98753.31;5075084;28;20199;-80
2023/03/19 02:24:17;;;;;;;10.10;7.80;;;;;;;11.09;100.00;98744.03;5072273;28;20200;-81
2023/03/19 02:26:48;;;;;;;10.70;8.67;;;;;;;11.08;100.00;98759.06;5067598;28;20230;-80
2023/03/19 02:29:17;;;;;;;11.57;8.33;;;;;;;11.06;100.00;98745.09;5074254;28;20188;-80
2023/03/19 02:31:45;;;;;;;12.60;9.07;;;;;;;11.17;100.00;98746.97;5071579;28;20228;-80
2023/03/19 02:34:36;;;;;;;13.70;10.27;;;;;;;11.12;100.00;98749.13;5023064;28;20191;-80
2023/03/19 02:37:11;;;;;;;13.80;9.37;;;;;;;10.93;100.00;98746.94;5071242;28;20189;-80
2023/03/19 02:39:47;;;;;;;15.93;9.57;;;;;;;11.03;100.00;98755.09;5071449;28;20222;-80
2023/03/19 02:42:19;;;;;;;15.17;10.07;;;;;;;10.96;100.00;98748.53;5070139;28;20663;-80
2023/03/19 02:44:48;;;;;;;14.80;9.53;;;;;;;10.87;100.00;98745.56;5074592;28;20192;-80
2023/03/19 02:47:17;;;;;;;11.60;8.43;;;;;;;10.88;100.00;98746.41;5073520;28;20242;-80
2023/03/19 02:49:45;;;;;;;10.77;8.57;;;;;;;10.92;100.00;98747.91;5073744;28;20207;-80
2023/03/19 02:52:14;;;;;;;11.20;8.00;;;;;;;10.89;100.00;98745.47;5076491;28;20200;-80
2023/03/19 02:54:42;;;;;;;9.50;7.73;;;;;;;10.96;100.00;98757.31;5073768;28;20188;-79
2023/03/19 02:57:12;;;;;;;15.43;8.20;;;;;;;10.95;100.00;98760.94;5071664;28;20189;-80
2023/03/19 02:59:42;;;;;;;12.80;7.70;;;;;;;10.92;100.00;98752.38;5071495;28;20224;-80
2023/03/19 03:02:11;;;;;;;18.00;8.33;;;;;;;10.90;100.00;98752.44;5067132;28;20257;-79
2023/03/19 03:04:39;;;;;;;14.10;8.20;;;;;;;10.84;100.00;98750.25;5066962;28;20284;-80
2023/03/19 03:07:08;;;;;;;14.43;8.63;;;;;;;11.02;100.00;98764.00;5070658;28;20242;-80
2023/03/19 03:09:36;;;;;;;14.07;7.73;;;;;;;10.89;100.00;98767.50;5021074;28;20213;-80
2023/03/19 03:12:06;;;;;;;12.57;8.30;;;;;;;10.96;100.00;98759.97;5070488;28;20250;-80
2023/03/19 03:14:35;;;;;;;15.00;8.23;;;;;;;11.02;100.00;98758.69;5072976;28;20199;-80
2023/03/19 03:17:07;;;;;;;9.57;8.20;;;;;;;10.88;100.00;98771.13;5065682;28;20196;-80
2023/03/19 03:19:35;;;;;;;10.40;8.07;;;;;;;10.71;100.00;98760.91;5072150;28;20217;-80
2023/03/19 03:22:04;;;;;;;11.53;8.00;;;;;;;10.89;100.00;98758.72;5071771;28;20199;-80
2023/03/19 03:24:34;;;;;;;12.97;8.07;;;;;;;11.04;100.00;98759.44;5064795;28;20196;-80
2023/03/19 03:27:03;;;;;;;10.33;8.37;;;;;;;10.92;100.00;98760.31;5073281;28;20203;-80
2023/03/19 03:29:35;;;;;;;15.47;9.07;;;;;;;11.00;100.00;98758.81;5068830;28;20199;-80
2023/03/19 03:32:06;;;;;;;11.10;8.10;;;;;;;10.85;100.00;98765.19;5072528;28;20691;-80
2023/03/19 03:34:34;;;;;;;9.23;7.83;;;;;;;10.91;100.00;98761.28;5069943;28;20254;-80
2023/03/19 03:37:02;;;;;;;13.37;8.20;;;;;;;10.75;100.00;98772.94;5073467;28;20238;-80
2023/03/19 03:39:30;;;;;;;11.33;7.77;;;;;;;10.83;100.00;98759.16;5062977;28;20376;-81
2023/03/19 03:41:59;;;;;;;14.87;8.17;;;;;;;10.76;100.00;98758.75;5076107;28;20192;-80
2023/03/19 03:44:27;;;;;;;11.30;8.43;;;;;;;10.92;100.00;98763.81;5073387;28;20306;-80
2023/03/19 03:46:56;;;;;;;11.47;8.47;;;;;;;10.97;100.00;98752.88;5066753;28;20189;-80
2023/03/19 03:49:28;;;;;;;10.93;8.37;;;;;;;11.01;100.00;98749.91;5073292;28;20670;-80
2023/03/19 03:51:56;;;;;;;11.30;7.87;;;;;;;10.96;100.00;98757.31;4988876;28;20207;-80
2023/03/19 03:54:27;;;;;;;13.60;8.57;;;;;;;10.87;100.00;98756.19;4988968;28;20195;-81
2023/03/19 03:56:55;;;;;;;11.13;8.37;;;;;;;10.77;100.00;98755.13;4957724;28;20195;-80
2023/03/19 03:59:24;;;;;;;10.80;8.20;;;;;;;10.86;100.00;98756.28;4986630;28;20262;-81
2023/03/19 04:01:52;;;;;;;15.20;7.73;;;;;;;10.78;100.00;98764.78;4982974;28;20197;-81
2023/03/19 04:04:21;;;;;;;11.13;8.03;;;;;;;10.79;100.00;98765.63;4991392;28;20210;-80
2023/03/19 04:06:51;;;;;;;12.40;8.13;;;;;;;10.75;100.00;98765.00;4984317;28;20253;-80
2023/03/19 04:09:19;;;;;;;12.47;8.30;;;;;;;10.75;100.00;98766.81;5001760;28;20192;-80
2023/03/19 04:11:47;;;;;;;12.87;8.13;;;;;;;10.86;100.00;98770.38;5072822;28;20673;-80
2023/03/19 04:14:18;;;;;;;12.13;7.97;;;;;;;10.78;100.00;98766.56;5074424;28;20232;-81
2023/03/19 04:16:47;;;;;;;10.23;8.40;;;;;;;10.69;100.00;98775.19;5071520;28;20254;-81
2023/03/19 04:19:15;;;;;;;9.80;8.10;;;;;;;10.69;100.00;98777.81;5017992;28;20352;-80
2023/03/19 04:21:44;;;;;;;12.97;8.40;;;;;;;10.71;100.00;98786.50;5050220;28;20225;-80
2023/03/19 04:24:14;;;;;;;13.60;9.00;;;;;;;10.81;100.00;98791.06;5043518;28;20255;-80
2023/03/19 04:26:42;;;;;;;13.03;8.70;;;;;;;10.85;100.00;98792.53;5045109;28;20270;-80
2023/03/19 04:29:11;;;;;;;9.90;7.97;;;;;;;10.94;100.00;98790.19;5043060;28;20251;-80
2023/03/19 04:31:39;;;;;;;10.67;8.40;;;;;;;10.84;100.00;98784.69;5043041;28;20232;-80
2023/03/19 04:34:08;;;;;;;11.43;7.93;;;;;;;10.86;100.00;98791.56;5043432;28;20185;-80
2023/03/19 04:36:37;;;;;;;14.20;8.10;;;;;;;10.79;100.00;98789.47;5043649;28;20205;-80
2023/03/19 04:39:06;;;;;;;13.20;8.57;;;;;;;10.81;100.00;98790.22;5052267;28;20246;-80
2023/03/19 04:41:36;;;;;;;11.93;8.70;;;;;;;10.85;100.00;98789.88;5073484;28;20270;-81
2023/03/19 04:44:04;;;;;;;10.70;8.20;;;;;;;10.82;100.00;98797.22;5072847;28;20242;-81
2023/03/19 04:46:32;;;;;;;14.73;8.83;;;;;;;10.84;100.00;98796.16;5033723;28;20204;-80
2023/03/19 04:49:01;;;;;;;10.00;7.97;;;;;;;10.81;100.00;98800.81;5027102;28;20244;-80
2023/03/19 04:51:29;;;;;;;17.27;9.37;;;;;;;10.82;100.00;98797.22;5023096;28;20193;-80
2023/03/19 04:53:58;;;;;;;12.17;9.20;;;;;;;10.75;100.00;98794.16;5021744;28;20193;-80
2023/03/19 04:56:27;;;;;;;16.37;10.13;;;;;;;10.75;100.00;98798.59;4974978;28;20201;-80
2023/03/19 04:58:57;;;;;;;12.63;9.30;;;;;;;10.64;100.00;98806.47;5022221;28;20189;-80
2023/03/19 05:01:25;;;;;;;11.27;8.93;;;;;;;10.70;100.00;98812.16;5020646;28;20681;-79
2023/03/19 05:03:57;;;;;;;13.57;10.30;;;;;;;10.62;100.00;98814.50;5030740;28;20212;-80
2023/03/19 05:06:27;;;;;;;12.67;8.47;;;;;;;10.67;100.00;98817.66;5031083;28;20204;-79
2023/03/19 05:08:55;;;;;;;12.17;8.63;;;;;;;10.77;100.00;98818.72;5050963;28;20201;-80
2023/03/19 05:11:24;;;;;;;11.03;8.43;;;;;;;10.72;100.00;98815.56;5069936;28;20364;-80
2023/03/19 05:13:53;;;;;;;11.27;7.50;;;;;;;10.61;100.00;98820.72;4994733;28;20214;-80
2023/03/19 05:16:22;;;;;;;12.07;8.30;;;;;;;10.51;100.00;98820.53;4986215;28;20203;-80
2023/03/19 05:18:52;;;;;;;12.87;8.20;;;;;;;10.49;100.00;98825.09;4991625;28;20290;-79
2023/03/19 05:21:20;;;;;;;10.57;8.23;;;;;;;10.59;100.00;98827.94;4994252;28;20757;-80
2023/03/19 05:23:51;;;;;;;11.10;8.40;;;;;;;10.45;100.00;98820.97;4991884;28;20724;-80
2023/03/19 05:26:20;;;;;;;12.17;8.43;;;;;;;10.54;100.00;98811.53;4951363;28;20196;-80
2023/03/19 05:28:49;;;;;;;12.80;8.70;;;;;;;10.51;100.00;98809.09;4955778;28;20279;-80
2023/03/19 05:31:17;;;;;;;10.93;8.50;;;;;;;10.51;100.00;98817.88;4964709;28;20229;-80
2023/03/19 05:33:48;;;;;;;13.60;9.37;;;;;;;10.59;100.00;98817.34;5029355;28;20225;-80
2023/03/19 05:36:17;;;;;;;15.17;8.40;;;;;;;10.54;100.00;98822.97;5033333;28;20268;-80
2023/03/19 05:38:46;;;;;;;9.57;7.83;;;;;;;10.58;100.00;98820.97;4973738;28;20230;-80
2023/03/19 05:41:17;;;;;;;14.10;8.50;;;;;;;10.68;100.00;98824.66;4969737;28;20294;-80
2023/03/19 05:43:45;;;;;;;13.73;8.33;;;;;;;10.67;100.00;98824.78;4974417;28;20207;-80
2023/03/19 05:46:13;;;;;;;15.67;8.53;;;;;;;10.66;100.00;98826.56;4992245;28;20286;-80
2023/03/19 05:48:42;;;;;;;13.17;8.53;;;;;;;10.60;100.00;98824.34;4989901;28;20211;-80
2023/03/19 05:51:11;;;;;;;12.43;8.63;;;;;;;10.64;100.00;98823.19;4988829;28;20218;-80
2023/03/19 05:53:39;;;;;;;13.97;8.77;;;;;;;10.52;100.00;98827.53;4987618;28;20210;-80
2023/03/19 05:56:08;;;;;;;11.00;8.23;;;;;;;10.56;100.00;98838.75;4992542;28;20322;-80
2023/03/19 05:58:36;;;;;;;12.00;8.47;;;;;;;10.49;100.00;98835.69;4992663;28;20199;-80
2023/03/19 06:01:05;;;;;;;10.50;7.40;;;;;;;10.51;100.00;98835.56;4993095;28;20637;-80
2023/03/19 06:03:34;;;;;;;12.33;7.60;;;;;;;10.36;100.00;98836.63;4993367;28;20530;-80
2023/03/19 06:06:02;;;;;;;8.40;7.37;;;;;;;10.35;100.00;98842.88;4993789;28;20634;-80
2023/03/19 06:08:32;;;;;;;13.10;8.30;;;;;;;10.39;100.00;98847.00;4991953;28;20191;-79
2023/03/19 06:11:00;;;;;;;10.50;7.97;;;;;;;10.44;100.00;98858.16;5034030;28;20197;-80
2023/03/19 06:13:29;;;;;;;12.50;8.33;;;;;;;10.52;100.00;98866.41;5036176;28;20198;-80
2023/03/19 06:15:57;;;;;;;11.50;8.23;;;;;;;10.49;100.00;98858.66;5035597;28;20236;-80
2023/03/19 06:18:26;;;;;;;14.10;8.00;;;;;;;10.47;100.00;98863.22;5038562;28;20198;-80
2023/03/19 06:20:56;;;;;;;13.47;9.10;;;;;;;10.47;100.00;98872.00;5034837;28;20264;-79
2023/03/19 06:23:24;;;;;;;11.73;9.13;;;;;;;10.37;100.00;98862.16;5031761;28;20206;-80
2023/03/19 06:25:53;;;;;;;15.23;9.83;;;;;;;10.46;100.00;98857.06;5032621;28;20194;-79
2023/03/19 06:28:22;;;;;;;21.90;12.57;;;;;;;10.46;100.00;98851.78;5039489;28;20269;-79
2023/03/19 06:30:50;;;;;;;20.93;12.83;;;;;;;10.47;100.00;98858.78;5039154;28;20235;-79
2023/03/19 06:33:18;;;;;;;13.77;10.43;;;;;;;10.48;100.00;98851.66;5074041;28;20250;-79
2023/03/19 06:35:47;;;;;;;15.20;9.43;;;;;;;10.48;100.00;98862.25;5071705;28;20196;-79
2023/03/19 06:38:15;;;;;;;13.70;8.73;;;;;;;10.45;100.00;98862.47;5071675;28;20250;-80
2023/03/19 06:40:44;;;;;;;13.70;8.53;;;;;;;10.23;100.00;98863.94;5066188;28;20694;-79
2023/03/19 06:43:14;;;;;;;12.60;7.67;;;;;;;10.49;100.00;98869.25;5072303;28;20718;-80
2023/03/19 06:45:42;;;;;;;11.40;8.10;;;;;;;10.45;100.00;98867.78;5074953;28;20196;-80
2023/03/19 06:48:11;;;;;;;11.83;8.27;;;;;;;10.48;100.00;98863.09;5069696;28;20223;-79
2023/03/19 06:50:41;;;;;;;12.07;7.80;;;;;;;10.48;100.00;98867.56;5075056;28;20238;-80
2023/03/19 06:53:10;;;;;;;9.33;7.50;;;;;;;10.61;100.00;98871.06;5081555;28;20192;-80
2023/03/19 06:55:38;;;;;;;14.80;8.10;;;;;;;10.48;100.00;98868.41;5074550;28;20201;-80
2023/03/19 06:58:07;;;;;;;12.00;7.50;;;;;;;10.49;100.00;98862.16;5079592;28;20196;-79
2023/03/19 07:00:36;;;;;;;13.00;7.87;;;;;;;10.63;100.00;98868.31;5079417;28;20201;-79
2023/03/19 07:03:06;;;;;;;9.93;7.70;;;;;;;10.61;100.00;98868.41;5077144;28;20262;-79
2023/03/19 07:05:34;;;;;;;10.57;7.10;;;;;;;10.67;100.00;98875.09;5072502;28;20188;-78
2023/03/19 07:08:03;;;;;;;12.97;7.60;;;;;;;10.69;100.00;98875.81;5066053;28;20258;-79
2023/03/19 07:10:31;;;;;;;10.60;7.27;;;;;;;10.65;100.00;98884.94;5007831;28;20191;-79
2023/03/19 07:13:01;;;;;;;11.33;7.40;;;;;;;10.70;100.00;98886.31;5003880;28;20190;-79
2023/03/19 07:15:29;;;;;;;10.93;7.70;;;;;;;10.80;100.00;98886.53;5005191;28;20202;-79
2023/03/19 07:18:00;;;;;;;10.90;7.93;;;;;;;10.81;100.00;98894.41;5005104;28;20268;-79
2023/03/19 07:20:29;;;;;;;15.10;7.90;;;;;;;10.80;100.00;98892.66;5009381;28;20524;-79
2023/03/19 07:22:57;;;;;;;10.30;7.37;;;;;;;10.84;100.00;98896.81;5009504;28;20218;-80
2023/03/19 07:25:26;;;;;;;10.50;7.37;;;;;;;10.62;100.00;98898.41;5007788;28;20249;-79
2023/03/19 07:27:56;;;;;;;13.03;7.67;;;;;;;10.72;100.00;98894.19;5019683;28;20192;-79
2023/03/19 07:30:24;;;;;;;13.57;7.83;;;;;;;10.68;100.00;98896.16;5073618;28;20193;-79
2023/03/19 07:32:52;;;;;;;12.17;8.43;;;;;;;10.79;100.00;98906.03;5068449;28;20283;-79
2023/03/19 07:35:23;;;;;;;15.50;8.20;;;;;;;10.75;100.00;98905.41;5068577;28;20192;-79
2023/03/19 07:37:51;;;;;;;10.57;7.67;;;;;;;10.78;100.00;98901.69;5069030;28;20235;-80
2023/03/19 07:40:21;;;;;;;13.20;8.43;;;;;;;10.83;100.00;98904.88;5073336;28;20222;-80
2023/03/19 07:42:50;;;;;;;10.73;8.27;;;;;;;10.71;100.00;98903.06;5071434;28;20223;-79
2023/03/19 07:45:18;;;;;;;11.43;8.10;;;;;;;10.88;100.00;98916.84;5068723;28;20205;-81
2023/03/19 07:47:46;;;;;;;14.50;8.40;;;;;;;10.89;100.00;98910.59;5067081;28;20211;-79
2023/03/19 07:50:19;;;;;;;10.70;8.30;;;;;;;10.96;100.00;98907.50;5070484;28;20656;-80
2023/03/19 07:52:50;;;;;;;12.07;7.87;;;;;;;10.97;100.00;98907.41;5075064;28;20192;-79
2023/03/19 07:55:22;;;;;;;11.63;7.83;;;;;;;10.73;100.00;98901.16;5074278;28;20193;-79
2023/03/19 07:57:51;;;;;;;13.43;8.00;;;;;;;11.00;100.00;98895.72;5067658;28;20257;-81
2023/03/19 08:00:20;;;;;;;11.97;8.30;;;;;;;10.93;100.00;98892.69;5068466;28;20208;-80
2023/03/19 08:02:48;;;;;;;14.07;7.97;;;;;;;11.08;100.00;98904.00;5069516;28;20216;-79
2023/03/19 08:05:17;;;;;;;13.47;8.30;;;;;;;10.88;100.00;98908.03;5068039;28;20197;-80
2023/03/19 08:07:46;;;;;;;13.37;7.40;;;;;;;11.11;100.00;98911.75;5066911;28;20417;-79
2023/03/19 08:10:16;;;;;;;13.27;8.07;;;;;;;11.22;100.00;98914.50;5071683;28;20263;-79
2023/03/19 08:12:45;;;;;;;12.17;7.77;;;;;;;11.32;100.00;98901.44;5036435;28;20201;-80
2023/03/19 08:15:14;;;;;;;12.63;7.30;;;;;;;11.20;100.00;98912.91;5071456;28;20192;-80
2023/03/19 08:17:43;;;;;;;11.03;7.40;;;;;;;11.10;100.00;98905.63;5067734;28;20188;-80
2023/03/19 08:20:15;;;;;;;10.97;7.43;;;;;;;11.28;100.00;98915.84;5072678;28;20199;-79
2023/03/19 08:22:43;;;;;;;13.33;7.87;;;;;;;11.18;100.00;98921.81;5066730;28;20220;-80
2023/03/19 08:25:12;;;;;;;12.33;7.97;;;;;;;11.31;100.00;98926.25;5069654;28;20192;-80
2023/03/19 08:27:42;;;;;;;14.70;8.33;;;;;;;11.37;100.00;98921.34;5069893;28;20216;-81
2023/03/19 08:30:12;;;;;;;11.33;7.80;;;;;;;11.40;100.00;98925.59;5072713;28;20191;-80
2023/03/19 08:32:40;;;;;;;12.37;8.00;;;;;;;11.31;100.00;98919.16;5073126;27;20228;-80
2023/03/19 08:35:12;;;;;;;10.80;8.20;;;;;;;11.45;100.00;98928.75;5066056;28;20189;-79
2023/03/19 08:37:41;;;;;;;10.40;8.00;;;;;;;11.61;100.00;98924.06;5070784;28;20277;-80
2023/03/19 08:40:10;;;;;;;10.87;8.20;;;;;;;11.60;100.00;98926.84;5074820;28;20185;-80
2023/03/19 08:42:41;;;;;;;11.10;7.97;;;;;;;11.57;100.00;98927.03;5067845;28;20224;-80
2023/03/19 08:45:15;;;;;;;10.17;8.37;;;;;;;11.63;100.00;98929.25;5069530;28;20192;-80
2023/03/19 08:47:45;;;;;;;13.83;7.93;;;;;;;11.52;100.00;98931.84;5069186;28;20217;-79
2023/03/19 08:50:13;;;;;;;12.40;9.10;;;;;;;11.60;100.00;98926.84;4958972;28;20218;-80
2023/03/19 08:52:42;;;;;;;11.17;8.10;;;;;;;11.67;100.00;98933.38;5011637;28;20249;-80
2023/03/19 08:55:12;;;;;;;12.17;8.20;;;;;;;11.72;100.00;98931.25;5008354;28;20218;-80
2023/03/19 08:57:45;;;;;;;14.57;8.50;;;;;;;11.83;100.00;98923.38;5012011;28;20198;-80
2023/03/19 09:00:22;;;;;;;11.27;7.93;;;;;;;11.90;100.00;98932.59;5010320;28;20194;-80
2023/03/19 09:02:50;;;;;;;16.23;8.87;;;;;;;11.97;100.00;98931.19;5002561;28;20218;-80
2023/03/19 09:05:21;;;;;;;10.30;7.73;;;;;;;11.79;100.00;98929.84;5011089;28;20201;-81
2023/03/19 09:07:52;;;;;;;10.80;7.40;;;;;;;11.86;100.00;98932.91;5011818;28;20188;-80
2023/03/19 09:10:23;;;;;;;14.87;8.00;;;;;;;11.87;100.00;98934.63;5067686;28;20296;-79
2023/03/19 09:12:54;;;;;;;10.73;8.00;;;;;;;11.91;100.00;98944.91;5069836;28;20259;-80
2023/03/19 09:15:33;;;;;;;11.97;7.77;;;;;;;12.09;100.00;98940.06;5073174;28;20223;-79
2023/03/19 09:18:04;;;;;;;12.60;7.90;;;;;;;11.80;100.00;98936.88;5068868;28;20282;-80
2023/03/19 09:20:36;;;;;;;11.23;7.73;;;;;;;12.14;100.00;98939.72;5072870;28;20208;-80
2023/03/19 09:23:06;;;;;;;10.03;6.97;;;;;;;12.31;100.00;98941.97;5064399;28;20224;-80
2023/03/19 09:25:38;;;;;;;9.37;7.03;;;;;;;12.21;100.00;98941.81;5067898;28;20192;-79
2023/03/19 09:28:09;;;;;;;11.20;7.57;;;;;;;12.19;100.00;98940.22;5072689;28;20199;-80
2023/03/19 09:30:46;;;;;;;9.83;7.53;;;;;;;12.41;100.00;98942.13;5071957;28;20224;-81
2023/03/19 09:33:18;;;;;;;11.13;7.47;;;;;;;12.52;100.00;98944.81;5075160;28;20215;-80
2023/03/19 09:35:51;;;;;;;8.90;7.20;;;;;;;12.63;100.00;98949.31;5075335;28;20192;-80
2023/03/19 09:38:19;;;;;;;11.80;7.57;;;;;;;12.69;100.00;98940.88;5073948;28;20291;-80
2023/03/19 09:41:02;;;;;;;12.30;6.80;;;;;;;12.71;100.00;98945.13;5070654;28;20240;-80
2023/03/19 09:43:48;;;;;;;8.93;7.03;;;;;;;12.59;100.00;98949.56;5076966;28;20227;-80
2023/03/19 09:46:23;;;;;;;10.30;7.03;;;;;;;12.65;100.00;98945.59;5068311;28;20200;-80
2023/03/19 09:48:57;;;;;;;9.20;6.63;;;;;;;12.56;100.00;98951.63;5070057;28;20224;-80
2023/03/19 09:51:30;;;;;;;8.50;6.87;;;;;;;12.49;100.00;98947.72;5036560;28;20207;-80
2023/03/19 09:54:04;;;;;;;10.23;7.33;;;;;;;12.61;100.00;98941.47;5062866;28;20192;-80
2023/03/19 09:56:34;;;;;;;12.00;7.37;;;;;;;12.49;100.00;98955.69;5068192;28;20297;-79
2023/03/19 09:59:03;;;;;;;10.83;7.93;;;;;;;12.56;100.00;98959.59;5071374;28;20254;-80
2023/03/19 10:01:36;;;;;;;12.07;6.80;;;;;;;12.40;100.00;98956.38;5068942;28;20189;-80
2023/03/19 10:04:36;;;;;;;9.57;6.97;;;;;;;12.28;100.00;98955.47;5072673;28;20276;-79
2023/03/19 10:07:17;;;;;;;10.60;6.93;;;;;;;12.29;100.00;98963.34;5067915;28;20197;-79
2023/03/19 10:09:58;;;;;;;13.20;7.50;;;;;;;12.33;100.00;98958.63;5072547;28;20294;-79
2023/03/19 10:12:40;;;;;;;8.43;6.67;;;;;;;12.35;100.00;98963.81;5071059;28;20200;-80
2023/03/19 10:15:26;;;;;;;10.80;7.47;;;;;;;12.35;100.00;98953.19;5074813;28;20196;-81
2023/03/19 10:18:03;;;;;;;11.33;7.07;;;;;;;12.54;100.00;98966.78;5069926;28;20184;-81
2023/03/19 10:20:45;;;;;;;8.67;6.67;;;;;;;12.60;100.00;98955.72;5042034;28;20252;-81
2023/03/19 10:23:39;;;;;;;11.07;6.23;;;;;;;12.51;100.00;98951.09;5063203;28;20274;-81
2023/03/19 10:26:14;;;;;;;10.60;6.77;;;;;;;12.73;100.00;98951.16;5070733;28;20720;-81
2023/03/19 10:28:46;;;;;;;8.10;6.60;;;;;;;12.72;100.00;98952.13;5068695;28;20254;-81
2023/03/19 10:31:26;;;;;;;10.17;6.30;;;;;;;12.97;100.00;98952.91;5070299;28;20260;-81
2023/03/19 10:34:11;;;;;;;8.43;6.23;;;;;;;13.00;100.00;98948.19;5066623;28;20572;-80
2023/03/19 10:36:40;;;;;;;8.13;5.70;;;;;;;13.46;100.00;98948.13;5068113;28;20201;-81
2023/03/19 10:39:11;;;;;;;9.03;6.20;;;;;;;13.68;100.00;98946.44;5065965;28;20200;-81
2023/03/19 10:41:49;;;;;;;7.97;5.87;;;;;;;14.08;100.00;98945.84;5069381;28;20196;-82
2023/03/19 10:44:29;;;;;;;9.63;5.93;;;;;;;14.46;100.00;98943.56;5067817;28;20227;-81
2023/03/19 10:47:09;;;;;;;11.07;5.33;;;;;;;14.71;100.00;98937.03;5071700;28;20189;-81
2023/03/19 10:49:39;;;;;;;9.57;5.30;;;;;;;15.25;100.00;98933.28;5071623;28;20203;-81
2023/03/19 10:52:19;;;;;;;8.23;5.47;;;;;;;15.66;100.00;98926.19;5071936;28;20360;-81
2023/03/19 10:54:48;;;;;;;6.93;4.57;;;;;;;15.71;100.00;98932.78;5064922;28;20196;-81
2023/03/19 10:57:26;;;;;;;7.00;3.50;;;;;;;15.10;100.00;98938.13;5067390;28;20204;-81
2023/03/19 10:59:55;;;;;;;5.60;3.47;;;;;;;15.48;100.00;98933.09;5066006;28;20200;-81
2023/03/19 11:02:29;;;;;;;5.87;3.70;;;;;;;15.17;100.00;98936.63;5008364;28;20203;-81
2023/03/19 11:05:23;;;;;;;8.17;6.03;;;;;;;14.80;100.00;98935.41;4989866;28;20261;-81
2023/03/19 11:07:56;;;;;;;19.20;12.73;;;;;;;15.06;100.00;98944.72;4990132;28;20206;-81
2023/03/19 11:10:28;;;;;;;46.63;35.30;;;;;;;14.88;100.00;98930.28;4989863;28;20249;-81
2023/03/19 11:12:59;;;;;;;17.20;11.03;;;;;;;14.64;100.00;98940.34;4972606;28;20217;-81
2023/03/19 11:15:34;;;;;;;8.03;5.33;;;;;;;14.15;100.00;98945.22;4986693;28;20650;-81
2023/03/19 11:18:08;;;;;;;6.00;4.23;;;;;;;14.56;100.00;98946.31;4991205;28;20241;-81
2023/03/19 11:20:40;;;;;;;5.93;4.20;;;;;;;14.93;100.00;98933.38;5012529;28;20660;-81
2023/03/19 11:23:15;;;;;;;19.20;13.30;;;;;;;15.16;100.00;98932.25;5027295;28;20194;-81
2023/03/19 11:25:51;;;;;;;8.37;4.07;;;;;;;14.98;100.00;98935.66;5025066;28;20224;-81
2023/03/19 11:28:23;;;;;;;8.07;6.43;;;;;;;14.62;100.00;98940.47;5024689;28;20235;-81
2023/03/19 11:30:59;;;;;;;9.20;8.13;;;;;;;14.48;100.00;98935.47;5063581;28;20231;-80
2023/03/19 11:33:43;;;;;;;10.23;8.10;;;;;;;14.80;100.00;98930.09;5065345;28;20294;-80
2023/03/19 11:36:21;;;;;;;4.40;3.50;;;;;;;15.01;100.00;98930.91;5068123;28;20184;-80